createdAt,value
2017-11-14T00:02:14.996Z,11.30
2017-11-14T00:07:43.149Z,16.00
2017-11-14T00:13:13.282Z,9.70
2017-11-14T00:18:41.450Z,15.33
2017-11-14T00:24:09.714Z,14.10
2017-11-14T00:29:40.625Z,13.27
2017-11-14T00:35:08.788Z,10.33
2017-11-14T00:40:36.924Z,18.07
2017-11-14T00:46:05.072Z,12.27
2017-11-14T00:51:50.219Z,14.97
2017-11-14T00:57:18.370Z,17.80
2017-11-14T01:02:46.513Z,17.53
2017-11-14T01:08:15.677Z,18.17
2017-11-14T01:13:44.572Z,16.80
2017-11-14T01:19:12.736Z,17.50
2017-11-14T01:24:41.657Z,22.50
2017-11-14T01:30:10.611Z,20.53
2017-11-14T01:35:39.548Z,16.30
2017-11-14T01:41:08.519Z,14.20
2017-11-14T01:46:38.655Z,15.30
2017-11-14T01:52:07.576Z,17.33
2017-11-14T01:57:35.989Z,15.90
2017-11-14T02:03:04.421Z,21.30
2017-11-14T02:08:32.568Z,17.53
2017-11-14T02:14:01.484Z,19.20
2017-11-14T02:19:34.738Z,16.50
2017-11-14T02:25:03.698Z,14.60
2017-11-14T02:30:32.635Z,13.00
2017-11-14T02:36:05.351Z,13.67
2017-11-14T02:41:34.265Z,14.93
2017-11-14T02:47:02.435Z,15.47
2017-11-14T02:52:30.602Z,18.23
2017-11-14T02:57:58.828Z,16.33
2017-11-14T03:03:26.979Z,15.23
2017-11-14T03:08:55.956Z,14.53
2017-11-14T03:14:24.145Z,15.90
2017-11-14T03:19:53.150Z,13.47
2017-11-14T03:25:22.153Z,13.67
2017-11-14T03:30:55.475Z,15.20
2017-11-14T03:36:23.648Z,15.50
2017-11-14T03:41:51.820Z,16.67
2017-11-14T03:47:19.986Z,17.07
2017-11-14T03:52:48.164Z,14.03
2017-11-14T03:58:16.365Z,19.20
2017-11-14T04:03:48.453Z,16.90
2017-11-14T04:09:16.604Z,16.07
2017-11-14T04:14:55.131Z,16.90
2017-11-14T04:20:23.282Z,16.13
2017-11-14T04:25:54.484Z,14.87
2017-11-14T04:31:23.449Z,21.27
2017-11-14T04:36:51.617Z,15.97
2017-11-14T04:42:20.553Z,19.83
2017-11-14T04:47:49.468Z,15.93
2017-11-14T04:53:19.568Z,19.07
2017-11-14T04:58:48.666Z,18.53
2017-11-14T05:04:16.884Z,15.60
2017-11-14T05:09:45.054Z,15.03
2017-11-14T05:15:13.978Z,16.20
2017-11-14T05:21:02.629Z,18.17
2017-11-14T05:26:31.043Z,16.87
2017-11-14T05:32:02.469Z,13.40
2017-11-14T05:37:31.642Z,14.50
2017-11-14T05:43:01.199Z,16.03
2017-11-14T05:48:30.159Z,18.40
2017-11-14T05:54:00.295Z,19.40
2017-11-14T05:59:29.244Z,16.67
2017-11-14T06:04:57.417Z,18.07
2017-11-14T06:10:25.603Z,15.10
2017-11-14T06:15:53.866Z,18.77
2017-11-14T06:21:22.157Z,16.60
2017-11-14T06:26:50.326Z,21.13
2017-11-14T06:32:18.633Z,14.53
2017-11-14T06:37:49.645Z,15.23
2017-11-14T06:43:17.950Z,20.83
2017-11-14T06:48:46.121Z,15.13
2017-11-14T06:54:14.269Z,15.13
2017-11-14T06:59:57.058Z,22.83
2017-11-14T07:05:26.009Z,14.83
2017-11-14T07:10:55.474Z,20.67
2017-11-14T07:16:23.676Z,17.87
2017-11-14T07:21:53.169Z,19.13
2017-11-14T07:27:21.336Z,18.37
2017-11-14T07:32:49.477Z,19.40
2017-11-14T07:38:18.396Z,18.80
2017-11-14T07:43:46.568Z,23.20
2017-11-14T07:49:14.721Z,21.40
2017-11-14T07:54:42.872Z,23.40
2017-11-14T08:00:11.808Z,22.70
2017-11-14T08:05:43.182Z,22.40
2017-11-14T08:11:13.688Z,18.67
2017-11-14T08:16:55.164Z,18.80
2017-11-14T08:22:25.522Z,17.47
2017-11-14T08:27:53.734Z,19.47
2017-11-14T08:33:21.888Z,23.03
2017-11-14T08:38:51.764Z,18.20
2017-11-14T08:44:20.670Z,18.97
2017-11-14T08:49:48.874Z,33.90
2017-11-14T08:55:17.035Z,21.70
2017-11-14T09:00:45.185Z,20.77
2017-11-14T09:06:14.113Z,33.57
2017-11-14T09:11:55.067Z,22.20
2017-11-14T09:17:24.411Z,19.23
2017-11-14T09:22:52.654Z,16.47
2017-11-14T09:28:20.829Z,14.73
2017-11-14T09:33:49.749Z,16.93
2017-11-14T09:39:26.712Z,12.63
2017-11-14T09:44:55.950Z,10.40
2017-11-14T09:50:24.211Z,10.00
2017-11-14T09:55:52.380Z,9.23
2017-11-14T10:01:21.328Z,7.53
2017-11-14T10:06:49.695Z,7.43
2017-11-14T10:12:17.883Z,7.87
2017-11-14T10:17:46.041Z,20.37
2017-11-14T10:23:14.207Z,25.23
2017-11-14T10:28:43.172Z,20.80
2017-11-14T10:34:11.326Z,23.20
2017-11-14T10:39:39.479Z,20.87
2017-11-14T10:45:08.401Z,25.70
2017-11-14T10:50:36.556Z,26.60
2017-11-14T10:56:04.704Z,22.60
2017-11-14T11:01:32.900Z,29.43
2017-11-14T11:07:01.079Z,35.53
2017-11-14T11:12:29.248Z,29.30
2017-11-14T11:17:57.428Z,35.93
2017-11-14T11:23:25.953Z,30.17
2017-11-14T11:28:56.563Z,28.33
2017-11-14T11:34:24.741Z,27.40
2017-11-14T11:39:54.853Z,27.93
2017-11-14T11:45:23.153Z,30.60
2017-11-14T11:50:52.064Z,27.57
2017-11-14T11:56:20.209Z,25.37
2017-11-14T12:01:49.132Z,26.30
2017-11-14T12:07:17.298Z,28.60
2017-11-14T12:12:45.518Z,30.17
2017-11-14T12:18:13.712Z,26.57
2017-11-14T12:23:53.909Z,27.47
2017-11-14T12:29:22.843Z,27.90
2017-11-14T12:34:51.778Z,27.07
2017-11-14T12:40:20.706Z,29.00
2017-11-14T12:45:48.878Z,24.50
2017-11-14T12:51:21.413Z,25.60
2017-11-14T12:56:50.439Z,25.90
2017-11-14T13:02:18.608Z,23.67
2017-11-14T13:07:46.765Z,23.00
2017-11-14T13:13:15.692Z,38.90
2017-11-14T13:18:43.866Z,22.67
2017-11-14T13:24:12.014Z,23.80
2017-11-14T13:29:40.161Z,22.70
2017-11-14T13:35:09.078Z,22.10
2017-11-14T13:40:38.004Z,20.20
2017-11-14T13:46:06.165Z,19.00
2017-11-14T13:51:34.311Z,19.83
2017-11-14T13:57:02.470Z,21.50
2017-11-14T14:02:31.510Z,20.63
2017-11-14T14:08:00.430Z,23.77
2017-11-14T14:13:28.819Z,20.50
2017-11-14T14:18:56.981Z,29.70
2017-11-14T14:24:25.151Z,34.73
2017-11-14T14:29:53.322Z,33.63
2017-11-14T14:35:22.264Z,30.53
2017-11-14T14:40:50.396Z,30.70
2017-11-14T14:46:18.542Z,31.47
2017-11-14T14:51:46.688Z,35.57
2017-11-14T14:57:14.856Z,45.37
2017-11-14T15:02:43.772Z,170.90
2017-11-14T15:08:12.146Z,58.27
2017-11-14T15:13:40.300Z,44.90
2017-11-14T15:19:08.448Z,72.30
2017-11-14T15:24:49.262Z,42.43
2017-11-14T15:30:17.404Z,49.07
2017-11-14T15:35:46.305Z,39.90
2017-11-14T15:41:14.456Z,46.20
2017-11-14T15:46:42.613Z,48.17
2017-11-14T15:52:10.756Z,81.10
2017-11-14T15:57:38.938Z,161.93
2017-11-14T16:03:07.092Z,155.20
2017-11-14T16:08:35.249Z,67.83
2017-11-14T16:14:04.161Z,76.47
2017-11-14T16:19:32.360Z,150.03
2017-11-14T16:25:00.721Z,95.17
2017-11-14T16:30:29.715Z,111.20
2017-11-14T16:35:58.003Z,132.10
2017-11-14T16:41:26.228Z,150.90
2017-11-14T16:46:54.457Z,123.40
2017-11-14T16:52:23.341Z,281.20
2017-11-14T16:57:51.500Z,203.43
2017-11-14T17:03:20.410Z,124.13
2017-11-14T17:08:48.573Z,134.70
2017-11-14T17:14:16.720Z,82.20
2017-11-14T17:19:55.321Z,72.07
2017-11-14T17:25:23.482Z,64.10
2017-11-14T17:30:55.703Z,85.27
2017-11-14T17:36:32.406Z,81.73
2017-11-14T17:42:11.864Z,71.93
2017-11-14T17:47:40.009Z,59.20
2017-11-14T17:53:08.916Z,62.90
2017-11-14T17:58:37.075Z,54.07
2017-11-14T18:04:05.212Z,67.40
2017-11-14T18:09:34.306Z,59.47
2017-11-14T18:15:06.228Z,62.10
2017-11-14T18:20:35.148Z,56.30
2017-11-14T18:26:03.553Z,58.10
2017-11-14T18:31:32.351Z,54.03
2017-11-14T18:37:00.554Z,135.47
2017-11-14T18:42:36.122Z,171.77
2017-11-14T18:48:04.281Z,242.13
2017-11-14T18:53:40.729Z,98.33
2017-11-14T18:59:08.882Z,178.63
2017-11-14T19:04:41.111Z,132.87
2017-11-14T19:10:14.259Z,94.73
2017-11-14T19:15:44.281Z,86.13
2017-11-14T19:21:12.463Z,164.67
2017-11-14T19:26:40.697Z,92.70
2017-11-14T19:32:09.043Z,102.33
2017-11-14T19:37:37.177Z,71.57
2017-11-14T19:43:05.326Z,157.73
2017-11-14T19:48:35.762Z,103.73
2017-11-14T19:54:03.988Z,57.13
2017-11-14T19:59:34.112Z,69.43
2017-11-14T20:05:05.373Z,60.53
2017-11-14T20:10:54.522Z,87.17
2017-11-14T20:16:22.668Z,66.33
2017-11-14T20:21:50.818Z,52.53
2017-11-14T20:27:19.724Z,53.70
2017-11-14T20:32:56.037Z,48.67
2017-11-14T20:38:24.204Z,51.00
2017-11-14T20:43:52.365Z,51.60
2017-11-14T20:49:21.456Z,53.60
2017-11-14T20:54:50.465Z,44.13
2017-11-14T21:00:32.571Z,45.63
2017-11-14T21:06:00.864Z,55.13
2017-11-14T21:11:33.368Z,42.47
2017-11-14T21:17:01.560Z,50.20
2017-11-14T21:22:33.574Z,47.17
2017-11-14T21:28:01.831Z,44.43
2017-11-14T21:33:33.245Z,42.97
2017-11-14T21:39:07.906Z,44.77
2017-11-14T21:44:38.154Z,47.20
2017-11-14T21:50:06.300Z,49.20
2017-11-14T21:55:34.460Z,46.83
2017-11-14T22:01:09.462Z,36.97
2017-11-14T22:12:50.892Z,44.80
2017-11-14T22:18:19.988Z,42.37
2017-11-14T22:23:53.691Z,44.87
2017-11-14T22:29:23.541Z,48.33
2017-11-14T22:34:56.479Z,46.80
2017-11-14T22:40:25.673Z,52.77
2017-11-14T22:45:59.235Z,42.27
2017-11-14T22:51:28.188Z,45.97
2017-11-14T22:56:59.913Z,42.27
2017-11-14T23:02:29.053Z,43.80
2017-11-14T23:08:01.214Z,40.90
2017-11-14T23:13:29.479Z,40.67
2017-11-14T23:18:58.409Z,38.77
2017-11-14T23:24:26.595Z,37.23
2017-11-14T23:29:54.765Z,47.07
2017-11-14T23:35:43.774Z,37.47
2017-11-14T23:41:13.877Z,35.27
2017-11-14T23:46:46.457Z,34.20
2017-11-14T23:52:15.375Z,33.50
2017-11-14T23:57:43.540Z,36.80
